Time;durP1;ratioP1;P1;durP2;ratioP2;P2;SDS_P1;SDS_P2;PMS_P1;PMS_P2;Temp;Humidity;BMP_temperature;BMP_pressure;BME280_temperature;BME280_humidity;BME280_pressure;Samples;Min_cycle;Max_cycle;Signal;HPM_P1;HPM_P2
2022/12/13 00:01:12;;;;;;;25.25;12.15;;;;;;;-6.78;100.00;101170.81;5040147;28;20499;-70
2022/12/13 00:03:38;;;;;;;40.42;13.10;;;;;;;-6.79;100.00;101163.78;5030054;28;20146;-70
2022/12/13 00:06:06;;;;;;;23.67;11.95;;;;;;;-6.78;100.00;101176.13;5029811;28;20364;-71
2022/12/13 00:08:31;;;;;;;29.92;13.57;;;;;;;-6.77;100.00;101165.53;5030588;28;20056;-71
2022/12/13 00:11:02;;;;;;;29.75;12.20;;;;;;;-6.79;100.00;101169.06;5032717;28;20477;-71
2022/12/13 00:13:28;;;;;;;32.10;13.73;;;;;;;-6.81;100.00;101173.44;5041646;28;20040;-71
2022/12/13 00:15:58;;;;;;;26.77;12.93;;;;;;;-6.84;100.00;101158.47;5029526;28;20116;-71
2022/12/13 00:18:24;;;;;;;40.65;14.57;;;;;;;-6.86;100.00;101156.69;5029038;28;20402;-70
2022/12/13 00:20:49;;;;;;;30.50;12.95;;;;;;;-6.87;100.00;101165.50;5029540;28;20028;-71
2022/12/13 00:23:15;;;;;;;27.33;13.38;;;;;;;-6.90;100.00;101158.47;5029354;28;20041;-70
2022/12/13 00:25:40;;;;;;;32.97;14.55;;;;;;;-6.94;100.00;101148.75;5047928;28;20048;-70
2022/12/13 00:28:05;;;;;;;31.52;12.77;;;;;;;-6.97;100.00;101159.31;5045988;28;20116;-70
2022/12/13 00:30:31;;;;;;;33.75;15.63;;;;;;;-6.97;100.00;101159.31;5028793;28;20452;-71
2022/12/13 00:32:56;;;;;;;27.77;13.25;;;;;;;-6.99;100.00;101154.03;5029056;28;20186;-71
2022/12/13 00:35:22;;;;;;;28.77;12.48;;;;;;;-7.01;100.00;101155.75;5029872;28;20027;-70
2022/12/13 00:37:47;;;;;;;27.20;12.35;;;;;;;-7.03;99.67;101152.22;5030597;28;20156;-70
2022/12/13 00:40:12;;;;;;;31.40;13.45;;;;;;;-7.05;99.56;101156.63;5030274;28;20041;-70
2022/12/13 00:42:38;;;;;;;23.63;12.27;;;;;;;-7.07;99.27;101152.22;5047148;28;20025;-71
2022/12/13 00:45:03;;;;;;;35.42;12.90;;;;;;;-7.07;99.86;101153.09;5044174;28;20124;-71
2022/12/13 00:47:29;;;;;;;29.98;14.35;;;;;;;-7.09;99.87;101149.53;5041607;28;20035;-71
2022/12/13 00:49:54;;;;;;;30.55;12.80;;;;;;;-7.04;100.00;101155.75;5029012;28;20564;-71
2022/12/13 00:52:19;;;;;;;33.85;14.90;;;;;;;-7.07;100.00;101150.44;5029912;28;20034;-70
2022/12/13 00:54:45;;;;;;;37.88;14.80;;;;;;;-7.08;99.83;101153.09;5028878;28;20021;-70
2022/12/13 00:57:10;;;;;;;24.88;13.70;;;;;;;-7.08;99.36;101145.16;5040233;28;20086;-70
2022/12/13 00:59:35;;;;;;;30.48;14.05;;;;;;;-7.11;99.59;101148.66;5041912;28;20033;-71
2022/12/13 01:02:01;;;;;;;31.70;13.15;;;;;;;-7.15;99.31;101146.00;5028917;28;20037;-71
2022/12/13 01:04:26;;;;;;;31.95;12.43;;;;;;;-7.18;99.26;101144.25;5028653;28;20018;-70
2022/12/13 01:06:53;;;;;;;38.83;14.63;;;;;;;-7.20;99.72;101144.22;5034249;28;20108;-71
2022/12/13 01:09:28;;;;;;;22.80;11.60;;;;;;;-7.21;99.88;101144.22;5027492;28;20163;-71
2022/12/13 01:11:58;;;;;;;37.00;14.40;;;;;;;-7.21;100.00;101146.88;5040027;28;20069;-71
2022/12/13 01:14:24;;;;;;;29.45;12.30;;;;;;;-7.19;100.00;101142.47;5045561;28;20051;-70
2022/12/13 01:16:50;;;;;;;33.70;14.35;;;;;;;-7.19;99.93;101145.97;5041628;28;20041;-70
2022/12/13 01:19:15;;;;;;;31.08;13.63;;;;;;;-7.20;99.92;101146.88;5048308;28;20423;-70
2022/12/13 01:21:40;;;;;;;28.67;13.55;;;;;;;-7.24;99.88;101136.25;5041331;28;20029;-70
2022/12/13 01:24:06;;;;;;;34.92;14.75;;;;;;;-7.26;99.99;101132.75;5043709;28;20029;-70
2022/12/13 01:26:33;;;;;;;27.58;12.13;;;;;;;-7.26;100.00;101138.03;5041794;28;20032;-70
2022/12/13 01:28:59;;;;;;;36.10;14.15;;;;;;;-7.29;99.98;101138.00;5046917;28;20543;-71
2022/12/13 01:31:25;;;;;;;30.50;12.52;;;;;;;-7.31;99.89;101129.19;5027989;28;20509;-71
2022/12/13 01:33:50;;;;;;;33.80;14.43;;;;;;;-7.34;99.68;101137.97;5028375;28;20106;-71
2022/12/13 01:36:19;;;;;;;27.67;13.05;;;;;;;-7.36;99.62;101146.78;5010669;28;20116;-71
2022/12/13 01:38:45;;;;;;;35.45;14.48;;;;;;;-7.41;99.71;101138.84;5044448;28;20112;-71
2022/12/13 01:41:16;;;;;;;26.73;12.90;;;;;;;-7.42;99.85;101147.63;5033748;28;20052;-71
2022/12/13 01:43:41;;;;;;;51.53;14.50;;;;;;;-7.43;99.68;101144.97;5046693;28;20044;-71
2022/12/13 01:46:09;;;;;;;37.13;13.48;;;;;;;-7.45;99.75;101145.88;5034074;28;20103;-71
2022/12/13 01:48:40;;;;;;;33.17;14.68;;;;;;;-7.46;99.81;101144.09;5028192;28;20057;-70
2022/12/13 01:51:09;;;;;;;35.90;14.67;;;;;;;-7.47;99.71;101146.72;5010098;28;20049;-70
2022/12/13 01:53:37;;;;;;;33.70;14.57;;;;;;;-7.45;99.75;101152.91;5028191;28;20040;-71
2022/12/13 01:56:13;;;;;;;42.30;16.42;;;;;;;-7.43;100.00;101150.25;5028255;28;20112;-70
2022/12/13 01:58:39;;;;;;;33.45;15.25;;;;;;;-7.42;100.00;101152.91;5028074;28;20535;-70
2022/12/13 02:01:04;;;;;;;37.50;13.73;;;;;;;-7.41;99.96;101148.50;5028521;28;20033;-71
2022/12/13 02:03:32;;;;;;;34.25;14.57;;;;;;;-7.43;100.00;101148.50;5027781;28;20423;-70
2022/12/13 02:06:06;;;;;;;30.80;15.45;;;;;;;-7.45;100.00;101142.34;5027395;28;20033;-71
2022/12/13 02:08:33;;;;;;;32.92;14.70;;;;;;;-7.46;99.94;101145.84;5028128;28;20365;-71
2022/12/13 02:10:59;;;;;;;31.98;13.98;;;;;;;-7.51;99.73;101142.28;5032556;28;20461;-71
2022/12/13 02:13:25;;;;;;;31.52;14.48;;;;;;;-7.54;99.78;101139.66;5048230;28;20037;-71
2022/12/13 02:16:11;;;;;;;39.88;16.70;;;;;;;-7.53;100.00;101139.63;5041946;28;20029;-71
2022/12/13 02:18:59;;;;;;;31.45;13.65;;;;;;;-7.55;100.00;101136.13;5046886;28;20484;-71
2022/12/13 02:21:58;;;;;;;30.27;14.25;;;;;;;-7.59;99.78;101139.63;5037014;28;20397;-70
2022/12/13 02:24:42;;;;;;;43.95;14.07;;;;;;;-7.60;99.69;101142.22;5014987;28;20184;-70
2022/12/13 02:27:44;;;;;;;36.08;14.48;;;;;;;-7.61;99.73;101144.00;5047855;28;20036;-70
2022/12/13 02:30:32;;;;;;;35.13;13.88;;;;;;;-7.63;99.67;101145.75;5027433;28;20041;-70
2022/12/13 02:33:14;;;;;;;34.15;12.93;;;;;;;-7.64;99.78;101144.00;5026132;28;20574;-71
2022/12/13 02:36:01;;;;;;;32.72;15.38;;;;;;;-7.65;99.68;101139.56;5026987;28;20852;-70
2022/12/13 02:38:57;;;;;;;33.30;16.50;;;;;;;-7.67;99.63;101149.25;5025944;28;20049;-70
2022/12/13 02:41:36;;;;;;;35.70;15.25;;;;;;;-7.73;99.55;101128.09;5035251;28;20071;-70
2022/12/13 02:44:05;;;;;;;29.50;13.55;;;;;;;-7.71;99.86;101132.47;5050528;28;20036;-71
2022/12/13 02:46:35;;;;;;;37.00;14.73;;;;;;;-7.71;99.86;101128.97;5049396;28;20040;-71
2022/12/13 02:49:02;;;;;;;30.25;14.48;;;;;;;-7.72;99.99;101133.38;5043628;28;20043;-70
2022/12/13 02:51:29;;;;;;;42.70;15.75;;;;;;;-7.71;100.00;101129.84;5041903;28;20029;-70
2022/12/13 02:53:54;;;;;;;32.72;14.48;;;;;;;-7.73;99.89;101120.16;5042073;28;20039;-70
2022/12/13 02:56:20;;;;;;;34.38;13.60;;;;;;;-7.75;99.90;101122.78;5044764;28;20032;-71
2022/12/13 02:58:52;;;;;;;29.15;13.63;;;;;;;-7.77;99.81;101121.88;5047633;28;20167;-71
2022/12/13 03:01:31;;;;;;;31.33;14.15;;;;;;;-7.78;99.70;101121.88;5040898;28;20041;-71
2022/12/13 03:04:10;;;;;;;32.92;12.52;;;;;;;-7.81;99.56;101109.53;5026432;28;20507;-70
2022/12/13 03:06:50;;;;;;;33.85;13.05;;;;;;;-7.80;99.55;101118.34;5024879;28;20139;-70
2022/12/13 03:09:31;;;;;;;32.35;14.68;;;;;;;-7.83;99.44;101108.66;5027386;28;20048;-71
2022/12/13 03:15:13;;;;;;;31.85;13.93;;;;;;;-7.85;99.64;101110.38;5037800;28;20048;-70
2022/12/13 03:17:44;;;;;;;32.33;13.82;;;;;;;-7.83;99.55;101110.41;5037838;28;20052;-70
2022/12/13 03:20:15;;;;;;;31.45;13.40;;;;;;;-7.93;99.25;101103.28;5023972;28;20543;-70
2022/12/13 03:22:40;;;;;;;32.28;14.18;;;;;;;-7.88;99.24;101114.75;5032879;28;20489;-70
2022/12/13 03:25:07;;;;;;;26.38;13.32;;;;;;;-7.92;99.05;101107.72;5045968;28;20025;-70
2022/12/13 03:27:32;;;;;;;30.90;14.07;;;;;;;-7.91;99.02;101115.63;5064843;28;20041;-70
2022/12/13 03:29:58;;;;;;;31.38;14.00;;;;;;;-7.90;99.38;101114.75;5050324;28;20444;-70
2022/12/13 03:32:24;;;;;;;29.40;13.38;;;;;;;-7.90;99.19;101121.78;5026851;28;20040;-70
2022/12/13 03:34:49;;;;;;;36.10;13.13;;;;;;;-7.91;99.48;101118.28;5026520;28;20034;-70
2022/12/13 03:37:15;;;;;;;36.78;13.18;;;;;;;-7.93;99.33;101105.91;5027501;28;20054;-70
2022/12/13 03:39:40;;;;;;;41.67;12.45;;;;;;;-7.91;99.50;101114.75;5026995;28;20255;-70
2022/12/13 03:42:05;;;;;;;36.33;13.65;;;;;;;-7.93;99.55;101113.84;5030148;28;20057;-70
2022/12/13 03:44:31;;;;;;;35.15;13.70;;;;;;;-7.91;99.89;101115.63;5029791;28;20593;-70
2022/12/13 03:46:56;;;;;;;28.48;12.88;;;;;;;-7.94;99.97;101102.41;5034438;28;20033;-70
2022/12/13 03:49:21;;;;;;;31.92;12.85;;;;;;;-7.94;99.86;101101.53;5026312;28;20037;-70
2022/12/13 03:51:47;;;;;;;37.88;13.07;;;;;;;-7.93;100.00;101106.81;5025359;28;20032;-71
2022/12/13 03:54:12;;;;;;;36.10;13.93;;;;;;;-7.92;100.00;101099.78;5027021;28;20153;-70
2022/12/13 03:56:38;;;;;;;32.20;13.18;;;;;;;-7.90;100.00;101105.97;5027256;28;20036;-70
2022/12/13 03:59:03;;;;;;;35.17;14.90;;;;;;;-7.92;100.00;101103.31;5027047;28;20041;-70
2022/12/13 04:01:28;;;;;;;35.08;13.18;;;;;;;-7.92;100.00;101099.78;5037001;28;20114;-71
2022/12/13 04:03:54;;;;;;;40.97;15.32;;;;;;;-7.93;100.00;101095.38;5026537;28;20091;-70
2022/12/13 04:06:19;;;;;;;38.08;13.45;;;;;;;-7.90;100.00;101103.31;5025678;28;20060;-70
2022/12/13 04:08:45;;;;;;;34.30;14.35;;;;;;;-7.92;100.00;101105.97;5026125;28;20033;-70
2022/12/13 04:14:14;;;;;;;35.30;14.13;;;;;;;-7.93;100.00;101096.25;4970964;28;20080;-70
2022/12/13 04:16:39;;;;;;;29.85;14.38;;;;;;;-7.96;100.00;101094.47;4994995;28;20052;-70
2022/12/13 04:19:04;;;;;;;29.00;12.82;;;;;;;-7.97;100.00;101095.38;5009059;28;20497;-70
2022/12/13 04:21:30;;;;;;;29.30;12.68;;;;;;;-7.97;100.00;101103.28;5026332;28;20424;-70
2022/12/13 04:23:55;;;;;;;38.47;14.02;;;;;;;-8.00;100.00;101095.34;5025486;28;20029;-70
2022/12/13 04:26:20;;;;;;;36.13;13.27;;;;;;;-8.07;99.86;101087.34;5027262;28;20416;-71
2022/12/13 04:28:46;;;;;;;32.20;14.38;;;;;;;-8.05;100.00;101094.41;5026855;28;20481;-70
2022/12/13 04:31:11;;;;;;;30.42;12.82;;;;;;;-8.04;100.00;101090.03;5024822;28;20116;-70
2022/12/13 04:33:36;;;;;;;31.90;13.57;;;;;;;-8.07;100.00;101084.72;5028095;28;20076;-70
2022/12/13 04:36:03;;;;;;;29.40;13.77;;;;;;;-8.06;100.00;101090.03;5029335;28;20037;-70
2022/12/13 04:38:28;;;;;;;27.85;14.02;;;;;;;-8.05;100.00;101094.41;5029855;28;20507;-70
2022/12/13 04:41:03;;;;;;;38.33;13.18;;;;;;;-8.03;100.00;101091.78;5031344;28;20033;-71
2022/12/13 04:43:29;;;;;;;33.40;13.38;;;;;;;-8.04;100.00;101093.53;5049728;28;20037;-71
2022/12/13 04:45:55;;;;;;;34.17;13.90;;;;;;;-8.04;100.00;101085.63;5036622;28;20477;-70
2022/12/13 04:48:20;;;;;;;28.27;12.88;;;;;;;-8.06;100.00;101082.09;5048370;28;20029;-70
2022/12/13 04:50:45;;;;;;;34.53;13.95;;;;;;;-8.05;100.00;101080.34;5031039;28;20043;-70
2022/12/13 04:53:15;;;;;;;32.15;13.52;;;;;;;-8.06;100.00;101081.22;5042699;28;20515;-70
2022/12/13 04:55:40;;;;;;;31.33;13.23;;;;;;;-8.08;100.00;101077.66;5046005;28;20041;-70
2022/12/13 04:58:05;;;;;;;42.33;13.55;;;;;;;-8.08;100.00;101075.91;5048315;28;20103;-70
2022/12/13 05:00:31;;;;;;;34.42;13.95;;;;;;;-8.08;100.00;101083.81;5035497;28;20057;-70
2022/12/13 05:02:57;;;;;;;32.72;13.77;;;;;;;-8.17;100.00;101074.97;5029309;28;20091;-71
2022/12/13 05:05:22;;;;;;;35.15;13.60;;;;;;;-8.10;100.00;101085.59;5029263;28;20037;-71
2022/12/13 05:07:47;;;;;;;38.08;13.35;;;;;;;-8.12;100.00;101081.16;5040414;28;20551;-70
2022/12/13 05:10:13;;;;;;;35.70;13.70;;;;;;;-8.08;100.00;101085.59;5031609;28;20421;-71
2022/12/13 05:12:38;;;;;;;36.65;14.18;;;;;;;-8.09;100.00;101079.44;5048071;28;20094;-71
2022/12/13 05:15:05;;;;;;;33.80;14.20;;;;;;;-8.11;100.00;101072.34;5039226;28;20435;-70
2022/12/13 05:17:30;;;;;;;35.25;14.15;;;;;;;-8.08;100.00;101077.66;5044200;28;20120;-70
2022/12/13 05:19:56;;;;;;;40.10;13.65;;;;;;;-8.10;100.00;101080.31;5047830;28;20108;-71
2022/12/13 05:22:21;;;;;;;32.97;12.50;;;;;;;-8.09;100.00;101071.50;5048951;28;20037;-70
2022/12/13 05:24:47;;;;;;;40.17;13.27;;;;;;;-8.05;100.00;101064.50;5047791;28;20456;-70
2022/12/13 05:27:13;;;;;;;37.92;13.63;;;;;;;-8.07;100.00;101064.47;5029185;28;20048;-71
2022/12/13 05:29:38;;;;;;;35.40;14.05;;;;;;;-8.08;100.00;101068.00;5033329;28;20032;-70
2022/12/13 05:32:04;;;;;;;38.70;12.68;;;;;;;-8.10;100.00;101067.13;5042497;28;20108;-70
2022/12/13 05:34:29;;;;;;;36.10;15.13;;;;;;;-8.10;100.00;101060.97;5027676;28;20057;-70
2022/12/13 05:36:55;;;;;;;37.00;13.73;;;;;;;-8.12;100.00;101063.56;5027058;28;20066;-70
2022/12/13 05:39:20;;;;;;;35.78;13.40;;;;;;;-8.14;100.00;101054.75;5028697;28;20060;-71
2022/12/13 05:41:46;;;;;;;29.00;13.02;;;;;;;-8.17;100.00;101056.50;5038581;28;20606;-70
2022/12/13 05:44:12;;;;;;;27.92;12.23;;;;;;;-8.18;100.00;101052.97;5045649;28;20039;-70
2022/12/13 05:46:37;;;;;;;35.33;11.77;;;;;;;-8.18;100.00;101055.63;5034040;28;20037;-70
2022/12/13 05:49:03;;;;;;;33.08;13.63;;;;;;;-8.19;100.00;101060.88;5047840;28;20023;-70
2022/12/13 05:51:28;;;;;;;28.88;13.18;;;;;;;-8.22;100.00;101057.34;5048008;28;20037;-70
2022/12/13 05:53:54;;;;;;;25.67;11.07;;;;;;;-8.22;100.00;101045.91;5046779;28;20052;-70
2022/12/13 05:56:19;;;;;;;32.17;12.77;;;;;;;-8.22;100.00;101051.19;5043804;28;20469;-70
2022/12/13 05:58:45;;;;;;;26.05;11.85;;;;;;;-8.25;100.00;101052.06;5027298;28;20119;-70
2022/12/13 06:01:13;;;;;;;39.13;12.82;;;;;;;-8.28;100.00;101052.03;5032299;28;20025;-70
2022/12/13 06:03:39;;;;;;;31.40;12.77;;;;;;;-8.32;100.00;101047.59;5027460;28;20115;-70
2022/12/13 06:06:07;;;;;;;24.77;11.77;;;;;;;-8.33;100.00;101050.22;5025617;28;20045;-70
2022/12/13 06:08:33;;;;;;;30.17;12.27;;;;;;;-8.38;100.00;101054.63;5028146;28;20642;-70
2022/12/13 06:11:00;;;;;;;32.53;12.98;;;;;;;-8.40;100.00;101051.97;5026516;28;20124;-71
2022/12/13 06:13:25;;;;;;;31.23;12.93;;;;;;;-8.40;99.82;101057.22;5026517;28;20111;-70
2022/12/13 06:15:51;;;;;;;29.42;12.60;;;;;;;-8.43;99.64;101059.00;5039645;28;20037;-71
2022/12/13 06:18:17;;;;;;;32.80;11.90;;;;;;;-8.48;99.63;101045.75;5044006;28;20481;-70
2022/12/13 06:20:43;;;;;;;25.67;11.82;;;;;;;-8.44;99.55;101060.72;5042253;28;20061;-70
2022/12/13 06:23:08;;;;;;;32.83;12.65;;;;;;;-8.40;99.80;101059.00;5026542;28;20044;-70
2022/12/13 06:25:35;;;;;;;31.98;12.32;;;;;;;-8.41;100.00;101054.59;5043291;28;20325;-70
2022/12/13 06:28:01;;;;;;;36.03;13.45;;;;;;;-8.39;99.95;101059.03;5045600;28;20110;-70
2022/12/13 06:30:27;;;;;;;30.10;12.13;;;;;;;-8.36;100.00;101063.41;5041082;28;20028;-70
2022/12/13 06:32:52;;;;;;;40.25;14.23;;;;;;;-8.40;100.00;101057.22;5027898;28;20128;-70
2022/12/13 06:35:17;;;;;;;25.17;11.95;;;;;;;-8.39;100.00;101059.03;5027605;28;20067;-70
2022/12/13 06:37:43;;;;;;;29.65;12.00;;;;;;;-8.44;100.00;101052.81;5026325;28;20057;-70
2022/12/13 06:40:08;;;;;;;29.13;11.95;;;;;;;-8.44;99.98;101067.75;5027989;28;20051;-70
2022/12/13 06:42:34;;;;;;;29.85;11.65;;;;;;;-8.46;99.96;101062.47;5043437;28;20032;-70
2022/12/13 06:44:59;;;;;;;30.55;12.95;;;;;;;-8.47;99.90;101058.06;5036575;28;20045;-70
2022/12/13 06:47:25;;;;;;;28.58;11.13;;;;;;;-8.48;100.00;101067.75;5032188;28;20052;-70
2022/12/13 06:49:51;;;;;;;38.15;13.95;;;;;;;-8.45;100.00;101066.88;5025405;28;20119;-70
2022/12/13 06:52:16;;;;;;;26.90;12.15;;;;;;;-8.45;100.00;101064.22;5028683;28;20504;-70
2022/12/13 06:54:42;;;;;;;41.17;13.68;;;;;;;-8.46;100.00;101067.75;5044625;28;20063;-70
2022/12/13 06:57:08;;;;;;;33.88;14.07;;;;;;;-8.47;100.00;101063.34;5026618;28;20075;-70
2022/12/13 06:59:34;;;;;;;31.40;12.43;;;;;;;-8.48;100.00;101061.59;5026920;28;20037;-70
2022/12/13 07:01:59;;;;;;;33.33;12.05;;;;;;;-8.53;100.00;101052.75;5031567;28;20497;-70
2022/12/13 07:04:24;;;;;;;31.52;12.10;;;;;;;-8.54;100.00;101057.13;5008080;28;20048;-70
2022/12/13 07:06:50;;;;;;;32.70;12.57;;;;;;;-8.53;100.00;101060.66;5013171;28;20137;-70
2022/12/13 07:09:15;;;;;;;27.02;12.38;;;;;;;-8.55;100.00;101057.13;5027496;28;20026;-70
2022/12/13 07:11:40;;;;;;;33.33;13.57;;;;;;;-8.56;99.96;101056.22;5034659;28;20049;-70
2022/12/13 07:14:06;;;;;;;35.95;13.27;;;;;;;-8.56;100.00;101064.16;5027324;28;20075;-70
2022/12/13 07:16:31;;;;;;;38.03;15.48;;;;;;;-8.50;100.00;101058.03;5027233;28;20084;-70
2022/12/13 07:18:59;;;;;;;33.55;13.05;;;;;;;-8.47;100.00;101060.72;5026127;28;20036;-70
2022/12/13 07:21:25;;;;;;;34.55;12.52;;;;;;;-8.48;100.00;101065.09;5026160;28;20044;-70
2022/12/13 07:23:51;;;;;;;34.78;12.70;;;;;;;-8.50;100.00;101065.94;5026766;28;20025;-70
2022/12/13 07:26:16;;;;;;;35.58;13.77;;;;;;;-8.53;100.00;101064.19;5027556;28;20091;-70
2022/12/13 07:28:42;;;;;;;34.50;12.70;;;;;;;-8.56;100.00;101064.16;5041850;28;20534;-70
2022/12/13 07:31:09;;;;;;;30.10;12.77;;;;;;;-8.57;100.00;101056.22;5039523;28;20034;-70
2022/12/13 07:33:35;;;;;;;35.35;13.98;;;;;;;-8.57;100.00;101062.38;5022201;28;20472;-70
2022/12/13 07:36:13;;;;;;;33.10;12.13;;;;;;;-8.60;100.00;101059.72;5025853;28;20030;-70
2022/12/13 07:38:38;;;;;;;29.33;12.55;;;;;;;-8.61;100.00;101057.94;5026368;28;20045;-70
2022/12/13 07:41:04;;;;;;;33.72;12.15;;;;;;;-8.61;100.00;101057.06;5030831;28;20114;-70
2022/12/13 07:43:31;;;;;;;27.95;12.40;;;;;;;-8.58;100.00;101067.63;5046239;28;20515;-70
2022/12/13 07:45:58;;;;;;;28.23;11.02;;;;;;;-8.61;100.00;101059.72;5040250;28;20636;-70
2022/12/13 07:48:23;;;;;;;23.85;10.23;;;;;;;-8.61;100.00;101068.50;5024505;28;20489;-70
2022/12/13 07:50:48;;;;;;;31.17;11.10;;;;;;;-8.59;100.00;101074.66;5024809;28;20038;-70
2022/12/13 07:53:14;;;;;;;30.20;13.65;;;;;;;-8.60;100.00;101069.38;5024921;28;20033;-70
2022/12/13 07:55:39;;;;;;;34.58;12.43;;;;;;;-8.57;100.00;101075.56;5008353;28;20627;-70
2022/12/13 07:58:07;;;;;;;39.60;14.18;;;;;;;-8.58;100.00;101084.38;5025273;28;20041;-70
2022/12/13 08:00:34;;;;;;;30.27;12.13;;;;;;;-8.54;100.00;101077.34;5026442;28;20369;-70
2022/12/13 08:03:00;;;;;;;38.00;14.15;;;;;;;-8.51;100.00;101072.09;5042126;28;20067;-70
2022/12/13 08:05:26;;;;;;;37.35;14.27;;;;;;;-8.46;100.00;101070.38;5031782;28;20060;-70
2022/12/13 08:07:51;;;;;;;38.30;14.80;;;;;;;-8.40;100.00;101072.19;5050079;28;20079;-71
2022/12/13 08:10:17;;;;;;;35.90;13.05;;;;;;;-8.35;100.00;101075.69;5045295;28;20029;-70
2022/12/13 08:12:43;;;;;;;39.10;15.50;;;;;;;-8.35;100.00;101071.31;5047085;28;20112;-70
2022/12/13 08:15:09;;;;;;;36.60;13.10;;;;;;;-8.33;100.00;101066.06;5039607;28;20079;-70
2022/12/13 08:17:34;;;;;;;38.13;15.88;;;;;;;-8.30;100.00;101058.16;5030443;28;20041;-70
2022/12/13 08:19:59;;;;;;;37.55;14.85;;;;;;;-8.20;100.00;101064.41;5027212;28;20364;-70
2022/12/13 08:22:25;;;;;;;43.15;16.80;;;;;;;-8.10;100.00;101068.88;5028632;28;20057;-70
2022/12/13 08:24:50;;;;;;;45.47;15.80;;;;;;;-8.05;100.00;101072.44;5029945;28;20060;-70
2022/12/13 08:27:16;;;;;;;33.83;16.50;;;;;;;-7.95;100.00;101076.88;5030652;28;20041;-70
2022/12/13 08:29:41;;;;;;;53.78;17.30;;;;;;;-7.83;100.00;101084.91;5029281;28;20480;-70
2022/12/13 08:32:10;;;;;;;39.20;16.30;;;;;;;-7.75;100.00;101083.16;5029381;28;20156;-70
2022/12/13 08:34:35;;;;;;;41.88;15.57;;;;;;;-7.64;100.00;101077.97;5028528;28;20048;-70
2022/12/13 08:37:01;;;;;;;45.80;17.17;;;;;;;-7.51;100.00;101073.59;5028287;28;20417;-70
2022/12/13 08:39:26;;;;;;;52.42;18.67;;;;;;;-7.32;100.00;101077.19;5043144;28;20052;-70
2022/12/13 08:41:52;;;;;;;51.70;19.40;;;;;;;-7.22;100.00;101064.06;5041010;28;20087;-70
2022/12/13 08:44:17;;;;;;;46.45;18.52;;;;;;;-7.04;100.00;101072.88;5043448;28;20078;-71
2022/12/13 08:46:42;;;;;;;55.58;20.20;;;;;;;-6.95;100.00;101076.47;5027693;28;20080;-71
2022/12/13 08:49:10;;;;;;;46.25;20.00;;;;;;;-6.85;100.00;101082.66;5029169;28;20037;-70
2022/12/13 08:51:35;;;;;;;49.63;19.48;;;;;;;-6.74;100.00;101082.69;5027714;28;20033;-71
2022/12/13 08:54:01;;;;;;;55.17;19.05;;;;;;;-6.60;100.00;101090.63;5029714;28;20045;-70
2022/12/13 08:56:27;;;;;;;53.15;19.05;;;;;;;-6.47;100.00;101092.44;5034731;28;20021;-70
2022/12/13 08:58:52;;;;;;;61.47;20.65;;;;;;;-6.36;100.00;101093.31;5044755;28;20072;-70
2022/12/13 09:01:18;;;;;;;56.28;19.83;;;;;;;-6.23;100.00;101096.84;5030360;28;20024;-70
2022/12/13 09:03:43;;;;;;;59.95;21.00;;;;;;;-6.14;100.00;101093.31;5028694;28;20033;-71
2022/12/13 09:06:12;;;;;;;56.63;21.92;;;;;;;-6.00;100.00;101095.06;5027383;28;20102;-71
2022/12/13 09:08:37;;;;;;;61.15;21.77;;;;;;;-5.88;100.00;101088.81;5028821;28;20052;-70
2022/12/13 09:11:04;;;;;;;62.63;22.33;;;;;;;-5.78;100.00;101092.34;5043650;28;20025;-71
2022/12/13 09:13:32;;;;;;;70.10;23.55;;;;;;;-5.71;100.00;101087.03;5048645;28;20036;-71
2022/12/13 09:15:58;;;;;;;62.88;25.08;;;;;;;-5.60;100.00;101087.00;5031874;28;20032;-71
2022/12/13 09:18:24;;;;;;;68.88;23.10;;;;;;;-5.56;100.00;101083.44;5056204;28;20040;-71
2022/12/13 09:20:50;;;;;;;50.72;21.15;;;;;;;-5.48;100.00;101089.63;5068545;28;20097;-72
2022/12/13 09:23:15;;;;;;;68.10;23.77;;;;;;;-5.40;100.00;101094.91;5067824;28;20545;-71
2022/12/13 09:25:41;;;;;;;62.90;22.55;;;;;;;-5.37;100.00;101081.63;5055056;28;20029;-71
2022/12/13 09:28:07;;;;;;;70.78;24.83;;;;;;;-5.25;100.00;101088.66;5028373;28;20539;-71
2022/12/13 09:30:33;;;;;;;61.70;24.15;;;;;;;-5.17;100.00;101086.88;5028712;28;20107;-71
2022/12/13 09:32:59;;;;;;;60.47;23.67;;;;;;;-5.06;100.00;101095.66;5027101;28;20034;-71
2022/12/13 09:35:24;;;;;;;76.05;26.83;;;;;;;-4.95;100.00;101090.28;5036178;28;20044;-71
2022/12/13 09:37:49;;;;;;;60.83;24.10;;;;;;;-4.90;100.00;101092.03;5028577;28;20053;-71
2022/12/13 09:40:21;;;;;;;62.10;23.35;;;;;;;-4.81;100.00;101091.09;5011335;28;20041;-71
2022/12/13 09:42:49;;;;;;;58.60;23.85;;;;;;;-4.74;100.00;101086.66;5047612;28;20408;-72
2022/12/13 09:45:15;;;;;;;66.45;26.23;;;;;;;-4.65;100.00;101089.25;5045527;28;20349;-72
2022/12/13 09:47:43;;;;;;;60.53;25.05;;;;;;;-4.54;100.00;101083.84;5030037;28;20033;-72
2022/12/13 09:50:13;;;;;;;64.22;24.13;;;;;;;-4.41;100.00;101086.41;5025235;28;20059;-72
2022/12/13 09:52:41;;;;;;;60.60;22.73;;;;;;;-4.33;100.00;101078.41;5027896;28;20077;-71
2022/12/13 09:55:23;;;;;;;66.82;25.38;;;;;;;-4.22;100.00;101080.94;5027730;28;20028;-72
2022/12/13 09:57:50;;;;;;;65.57;24.73;;;;;;;-4.17;100.00;101077.38;5027201;28;20041;-72
2022/12/13 10:00:22;;;;;;;62.60;22.65;;;;;;;-4.08;100.00;101079.06;5028876;28;20381;-72
2022/12/13 10:02:51;;;;;;;58.30;20.23;;;;;;;-4.02;100.00;101072.81;5028431;28;20068;-72
2022/12/13 10:05:30;;;;;;;58.22;22.33;;;;;;;-3.92;100.00;101074.47;5027947;28;20037;-72
2022/12/13 10:08:16;;;;;;;66.97;24.08;;;;;;;-3.87;100.00;101064.69;5027861;28;20041;-72
2022/12/13 10:10:43;;;;;;;56.78;23.42;;;;;;;-3.79;100.00;101067.28;5027847;28;20667;-72
2022/12/13 10:13:19;;;;;;;58.00;23.00;;;;;;;-3.73;100.00;101064.53;5042252;28;20071;-72
2022/12/13 10:15:52;;;;;;;66.05;23.88;;;;;;;-3.68;100.00;101068.94;5027275;28;20447;-72
2022/12/13 10:18:23;;;;;;;;;;;;;;;-3.62;100.00;101055.56;5027877;28;20041;-72
2022/12/13 10:20:50;;;;;;;62.90;21.85;;;;;;;-3.59;100.00;101049.34;5027878;28;20309;-71
2022/12/13 10:23:15;;;;;;;56.45;22.15;;;;;;;-3.51;100.00;101058.09;5041857;28;20029;-72
2022/12/13 10:25:49;;;;;;;54.33;21.65;;;;;;;-3.46;100.00;101056.25;5027529;28;20044;-72
2022/12/13 10:28:17;;;;;;;58.25;22.23;;;;;;;-3.41;100.00;101057.09;5026484;28;20033;-72
2022/12/13 10:30:43;;;;;;;54.92;22.15;;;;;;;-3.38;100.00;101042.88;5026659;28;20041;-72
2022/12/13 10:33:26;;;;;;;58.20;22.90;;;;;;;-3.35;100.00;101035.75;5026606;28;20044;-72
2022/12/13 10:36:01;;;;;;;62.33;23.93;;;;;;;-3.35;100.00;101037.53;5025047;28;20140;-72
2022/12/13 10:38:29;;;;;;;55.78;22.83;;;;;;;-3.26;100.00;101039.22;5025543;28;20332;-72
2022/12/13 10:40:55;;;;;;;52.42;21.27;;;;;;;-3.23;100.00;101031.16;5028917;28;20032;-72
2022/12/13 10:43:25;;;;;;;59.63;24.15;;;;;;;-3.18;100.00;101034.66;5041331;28;20531;-72
2022/12/13 10:45:57;;;;;;;60.63;22.65;;;;;;;-3.10;100.00;101024.78;5038158;28;20041;-72
2022/12/13 10:48:29;;;;;;;55.85;22.00;;;;;;;-3.06;100.00;101025.63;5036531;28;20052;-72
2022/12/13 10:51:01;;;;;;;53.63;21.73;;;;;;;-3.01;100.00;101029.97;5026174;28;20059;-72
2022/12/13 10:53:31;;;;;;;65.37;22.33;;;;;;;-2.95;100.00;101027.22;5027126;28;20128;-72
2022/12/13 10:55:57;;;;;;;69.60;23.63;;;;;;;-2.84;100.00;101014.66;5027103;28;20790;-72
2022/12/13 10:58:34;;;;;;;62.60;25.08;;;;;;;-2.65;100.00;101007.28;5047322;28;20064;-73
2022/12/13 11:01:08;;;;;;;61.25;23.65;;;;;;;-2.47;100.00;101002.53;5030052;28;20079;-73
2022/12/13 11:03:33;;;;;;;61.92;25.40;;;;;;;-2.33;100.00;100996.09;5026896;28;20037;-72
2022/12/13 11:06:12;;;;;;;61.97;24.60;;;;;;;-2.20;100.00;100995.84;5032653;28;20089;-72
2022/12/13 11:08:37;;;;;;;59.50;22.63;;;;;;;-2.11;100.00;100988.56;5046832;28;20500;-72
2022/12/13 11:11:05;;;;;;;56.80;23.00;;;;;;;-2.03;100.00;100985.78;5044243;28;20040;-72
2022/12/13 11:13:49;;;;;;;58.97;24.02;;;;;;;-1.91;100.00;100990.91;5041371;28;20526;-73